createdAt,value
2019-03-31T00:00:46.578Z,13.96
2019-03-31T00:03:16.193Z,14.06
2019-03-31T00:05:45.809Z,14.01
2019-03-31T00:08:15.418Z,13.94
2019-03-31T00:10:45.035Z,13.81
2019-03-31T00:13:14.647Z,13.71
2019-03-31T00:15:44.462Z,13.63
2019-03-31T00:18:14.097Z,13.54
2019-03-31T00:20:43.718Z,13.55
2019-03-31T00:23:13.323Z,13.53
2019-03-31T00:25:44.670Z,13.42
2019-03-31T00:28:14.267Z,13.35
2019-03-31T00:30:43.880Z,13.28
2019-03-31T00:33:13.565Z,13.22
2019-03-31T00:35:44.025Z,13.15
2019-03-31T00:38:13.699Z,13.09
2019-03-31T00:40:43.387Z,13.02
2019-03-31T00:43:12.990Z,13.01
2019-03-31T00:45:42.628Z,13.01
2019-03-31T00:48:12.255Z,12.99
2019-03-31T00:50:41.850Z,13.02
2019-03-31T00:53:11.786Z,13.26
2019-03-31T00:55:41.430Z,13.54
2019-03-31T00:58:11.048Z,13.74
2019-03-31T01:00:47.223Z,13.82
2019-03-31T01:03:18.801Z,13.84
2019-03-31T01:05:48.519Z,13.89
2019-03-31T01:08:18.187Z,13.72
2019-03-31T01:10:48.038Z,13.52
2019-03-31T01:13:17.869Z,13.49
2019-03-31T01:15:47.500Z,13.43
2019-03-31T01:18:17.439Z,13.36
2019-03-31T01:20:47.413Z,13.31
2019-03-31T01:23:17.014Z,13.31
2019-03-31T01:25:46.633Z,13.38
2019-03-31T01:28:16.979Z,13.49
2019-03-31T01:30:46.601Z,13.60
2019-03-31T01:33:16.601Z,13.69
2019-03-31T01:35:46.232Z,13.76
2019-03-31T01:38:15.909Z,13.74
2019-03-31T01:40:46.138Z,13.62
2019-03-31T01:43:15.727Z,13.49
2019-03-31T01:45:45.353Z,13.46
2019-03-31T01:48:15.019Z,13.44
2019-03-31T01:50:45.034Z,13.51
2019-03-31T01:53:14.659Z,13.49
2019-03-31T01:55:44.284Z,13.40
2019-03-31T01:58:13.888Z,13.31
2019-03-31T02:00:47.992Z,13.20
2019-03-31T02:03:17.995Z,13.09
2019-03-31T02:05:47.614Z,13.12
2019-03-31T02:08:17.223Z,13.09
2019-03-31T02:10:46.852Z,13.02
2019-03-31T02:13:16.469Z,12.99
2019-03-31T02:15:46.087Z,12.93
2019-03-31T02:18:15.694Z,12.83
2019-03-31T02:20:45.302Z,12.87
2019-03-31T02:23:14.909Z,12.85
2019-03-31T02:25:44.532Z,12.82
2019-03-31T02:28:14.141Z,12.76
2019-03-31T02:30:43.754Z,12.74
2019-03-31T02:33:13.355Z,12.70
2019-03-31T02:35:42.966Z,12.59
2019-03-31T02:38:12.581Z,12.52
2019-03-31T02:40:42.217Z,12.48
2019-03-31T02:43:11.829Z,12.35
2019-03-31T02:45:41.461Z,12.29
2019-03-31T02:48:11.074Z,12.18
2019-03-31T02:50:47.138Z,12.14
2019-03-31T02:53:19.318Z,12.14
2019-03-31T02:55:49.502Z,12.08
2019-03-31T02:58:19.670Z,12.04
2019-03-31T03:00:49.544Z,11.99
2019-03-31T03:03:21.111Z,11.94
2019-03-31T03:05:51.028Z,11.87
2019-03-31T03:08:21.133Z,11.88
2019-03-31T03:10:53.387Z,11.80
2019-03-31T03:13:27.232Z,11.74
2019-03-31T03:16:04.774Z,11.68
2019-03-31T03:18:34.385Z,11.69
2019-03-31T03:21:04.017Z,11.72
2019-03-31T03:23:33.619Z,11.65
2019-03-31T03:26:03.241Z,11.68
2019-03-31T03:28:32.931Z,11.60
2019-03-31T03:31:02.994Z,11.57
2019-03-31T03:33:33.297Z,11.55
2019-03-31T03:36:02.935Z,11.51
2019-03-31T03:38:32.525Z,11.52
2019-03-31T03:41:02.151Z,11.51
2019-03-31T03:43:31.763Z,11.51
2019-03-31T03:46:01.376Z,11.46
2019-03-31T03:48:30.993Z,11.36
2019-03-31T03:51:00.602Z,11.30
2019-03-31T03:53:30.208Z,11.33
2019-03-31T03:55:59.821Z,11.35
2019-03-31T03:58:29.435Z,11.31
2019-03-31T04:00:59.045Z,11.20
2019-03-31T04:03:31.226Z,11.22
2019-03-31T04:06:02.828Z,11.33
2019-03-31T04:08:32.433Z,11.32
2019-03-31T04:11:20.665Z,11.29
2019-03-31T04:13:48.472Z,11.27
2019-03-31T04:16:18.112Z,11.20
2019-03-31T04:18:48.887Z,11.19
2019-03-31T04:21:18.506Z,11.14
2019-03-31T04:23:48.136Z,11.14
2019-03-31T04:26:17.729Z,11.18
2019-03-31T04:28:47.337Z,11.23
2019-03-31T04:31:17.005Z,11.26
2019-03-31T04:33:51.392Z,11.20
2019-03-31T04:36:17.993Z,11.21
2019-03-31T04:38:47.585Z,11.21
2019-03-31T04:41:17.286Z,11.18
2019-03-31T04:43:46.896Z,11.12
2019-03-31T04:46:16.565Z,11.14
2019-03-31T04:48:46.231Z,11.09
2019-03-31T04:51:15.919Z,11.15
2019-03-31T04:53:45.526Z,11.06
2019-03-31T04:56:15.159Z,10.98
2019-03-31T04:58:44.858Z,11.02
2019-03-31T05:01:14.542Z,10.99
2019-03-31T05:03:44.152Z,10.97
2019-03-31T05:06:14.351Z,11.07
2019-03-31T05:08:43.981Z,11.11
2019-03-31T05:11:13.595Z,11.16
2019-03-31T05:13:43.206Z,11.20
2019-03-31T05:16:12.819Z,11.22
2019-03-31T05:18:42.436Z,11.22
2019-03-31T05:21:14.401Z,11.17
2019-03-31T05:23:44.007Z,11.26
2019-03-31T05:26:13.637Z,11.38
2019-03-31T05:28:44.321Z,11.41
2019-03-31T05:31:13.941Z,11.45
2019-03-31T05:33:43.547Z,11.49
2019-03-31T05:36:13.164Z,11.52
2019-03-31T05:38:42.779Z,11.59
2019-03-31T05:41:12.409Z,11.63
2019-03-31T05:43:42.027Z,11.67
2019-03-31T05:46:11.666Z,11.75
2019-03-31T05:48:41.349Z,11.84
2019-03-31T05:51:10.986Z,11.94
2019-03-31T05:53:40.565Z,12.01
2019-03-31T05:56:10.188Z,12.07
2019-03-31T05:58:39.798Z,12.11
2019-03-31T06:01:09.403Z,12.18
2019-03-31T06:06:11.783Z,12.36
2019-03-31T06:08:41.407Z,12.35
2019-03-31T06:11:11.019Z,12.44
2019-03-31T06:13:40.626Z,12.63
2019-03-31T06:16:12.410Z,12.80
2019-03-31T06:18:43.804Z,12.94
2019-03-31T06:21:13.416Z,13.12
2019-03-31T06:23:43.101Z,13.35
2019-03-31T06:26:12.710Z,13.56
2019-03-31T06:28:44.382Z,13.77
2019-03-31T06:31:13.991Z,13.97
2019-03-31T06:33:44.892Z,14.18
2019-03-31T06:36:16.064Z,14.26
2019-03-31T06:38:45.685Z,14.40
2019-03-31T06:41:15.299Z,14.50
2019-03-31T06:43:44.919Z,14.59
2019-03-31T06:46:14.525Z,14.59
2019-03-31T06:48:44.150Z,14.67
2019-03-31T06:51:17.240Z,14.74
2019-03-31T06:53:46.952Z,14.78
2019-03-31T06:56:16.577Z,14.82
2019-03-31T06:58:46.973Z,14.87
2019-03-31T07:01:16.574Z,14.96
2019-03-31T07:03:46.314Z,15.06
2019-03-31T07:06:16.742Z,15.17
2019-03-31T07:08:46.408Z,15.24
2019-03-31T07:11:16.028Z,15.30
2019-03-31T07:13:45.654Z,15.31
2019-03-31T07:16:16.915Z,15.37
2019-03-31T07:18:46.548Z,15.44
2019-03-31T07:21:18.496Z,15.47
2019-03-31T07:23:48.139Z,15.55
2019-03-31T07:26:17.740Z,15.67
2019-03-31T07:28:48.907Z,15.72
2019-03-31T07:31:18.530Z,15.73
2019-03-31T07:33:48.242Z,15.76
2019-03-31T07:36:17.863Z,15.78
2019-03-31T07:38:47.517Z,15.71
2019-03-31T07:41:17.100Z,15.75
2019-03-31T07:43:46.733Z,15.88
2019-03-31T07:46:16.352Z,15.97
2019-03-31T07:48:45.984Z,16.10
2019-03-31T07:51:15.586Z,16.18
2019-03-31T07:53:45.223Z,16.33
2019-03-31T07:56:16.168Z,16.41
2019-03-31T07:58:46.108Z,16.52
2019-03-31T08:01:17.589Z,16.60
2019-03-31T08:03:47.284Z,16.40
2019-03-31T08:06:16.903Z,16.22
2019-03-31T08:08:46.537Z,16.27
2019-03-31T08:11:17.234Z,16.40
2019-03-31T08:13:46.940Z,16.43
2019-03-31T08:16:16.569Z,16.39
2019-03-31T08:18:47.210Z,16.46
2019-03-31T08:21:16.839Z,16.44
2019-03-31T08:23:46.457Z,16.46
2019-03-31T08:26:16.071Z,16.52
2019-03-31T08:28:46.369Z,16.53
2019-03-31T08:31:16.002Z,16.61
2019-03-31T08:33:45.634Z,16.66
2019-03-31T08:36:15.238Z,16.65
2019-03-31T08:38:44.864Z,16.67
2019-03-31T08:41:14.466Z,16.65
2019-03-31T08:43:47.042Z,16.60
2019-03-31T08:46:16.657Z,16.60
2019-03-31T08:48:46.277Z,16.67
2019-03-31T08:51:15.888Z,16.76
2019-03-31T08:53:45.515Z,16.74
2019-03-31T08:56:16.057Z,16.65
2019-03-31T08:58:45.687Z,16.52
2019-03-31T09:01:16.947Z,16.52
2019-03-31T09:03:46.537Z,16.46
2019-03-31T09:06:16.124Z,16.53
2019-03-31T09:08:45.719Z,16.74
2019-03-31T09:11:15.338Z,16.81
2019-03-31T09:13:44.982Z,16.82
2019-03-31T09:16:15.173Z,16.92
2019-03-31T09:18:44.800Z,17.07
2019-03-31T09:21:14.408Z,17.31
2019-03-31T09:23:44.118Z,17.51
2019-03-31T09:26:16.559Z,17.59
2019-03-31T09:28:46.164Z,17.51
2019-03-31T09:31:15.843Z,17.50
2019-03-31T09:33:45.479Z,17.63
2019-03-31T09:36:16.719Z,17.98
2019-03-31T09:38:48.569Z,18.28
2019-03-31T09:41:17.965Z,18.51
2019-03-31T09:43:47.601Z,18.77
2019-03-31T09:46:17.223Z,18.80
2019-03-31T09:48:46.844Z,18.72
2019-03-31T09:51:16.484Z,18.60
2019-03-31T09:53:47.431Z,18.45
2019-03-31T09:56:17.664Z,18.23
2019-03-31T09:58:47.883Z,18.06
2019-03-31T10:01:18.158Z,17.97
2019-03-31T10:03:47.791Z,17.87
2019-03-31T10:06:29.656Z,17.75
2019-03-31T10:08:49.289Z,17.72
2019-03-31T10:11:18.922Z,17.67
2019-03-31T10:13:48.545Z,17.46
2019-03-31T10:16:18.236Z,17.37
2019-03-31T10:18:47.851Z,17.34
2019-03-31T10:21:17.478Z,17.30
2019-03-31T10:23:47.084Z,17.35
2019-03-31T10:26:30.979Z,17.36
2019-03-31T10:28:48.031Z,17.22
2019-03-31T10:31:17.637Z,17.32
2019-03-31T10:33:47.265Z,17.43
2019-03-31T10:36:16.863Z,17.37
2019-03-31T10:38:46.478Z,17.38
2019-03-31T10:41:16.090Z,17.40
2019-03-31T10:43:45.710Z,17.44
2019-03-31T10:46:15.321Z,17.42
2019-03-31T10:48:44.971Z,17.39
2019-03-31T10:51:14.580Z,17.34
2019-03-31T10:53:44.295Z,17.48
2019-03-31T10:56:13.907Z,17.63
2019-03-31T10:58:43.531Z,17.73
2019-03-31T11:01:13.142Z,17.78
2019-03-31T11:03:42.767Z,17.83
2019-03-31T11:06:12.395Z,17.89
2019-03-31T11:08:42.002Z,17.72
2019-03-31T11:11:11.888Z,17.47
2019-03-31T11:13:41.498Z,17.21
2019-03-31T11:16:11.131Z,16.77
2019-03-31T11:18:40.716Z,16.49
2019-03-31T11:21:14.797Z,16.28
2019-03-31T11:23:45.970Z,16.16
2019-03-31T11:26:16.218Z,16.01
2019-03-31T11:28:45.816Z,15.94
2019-03-31T11:31:17.957Z,15.91
2019-03-31T11:33:46.795Z,15.96
2019-03-31T11:36:16.395Z,16.03
2019-03-31T11:38:45.979Z,16.11
2019-03-31T11:41:15.608Z,16.26
2019-03-31T11:43:45.208Z,16.51
2019-03-31T11:46:14.846Z,16.69
2019-03-31T11:48:44.443Z,16.65
2019-03-31T11:51:15.629Z,16.68
2019-03-31T11:53:45.236Z,16.74
2019-03-31T11:56:14.961Z,16.82
2019-03-31T11:58:44.560Z,16.85
2019-03-31T12:01:14.654Z,16.70
2019-03-31T12:03:44.587Z,16.62
2019-03-31T12:06:14.228Z,16.69
2019-03-31T12:08:45.102Z,16.89
2019-03-31T12:11:14.852Z,16.99
2019-03-31T12:13:44.451Z,17.09
2019-03-31T12:16:14.881Z,17.18
2019-03-31T12:18:44.480Z,17.18
2019-03-31T12:21:14.184Z,17.42
2019-03-31T12:23:43.893Z,18.18
2019-03-31T12:26:13.527Z,19.46
2019-03-31T12:28:44.154Z,22.29
2019-03-31T12:31:13.786Z,25.97
2019-03-31T12:33:43.423Z,29.17
2019-03-31T12:36:13.910Z,30.90
2019-03-31T12:38:43.599Z,30.70
2019-03-31T12:41:13.208Z,29.44
2019-03-31T12:43:42.827Z,29.12
2019-03-31T12:46:12.623Z,29.00
2019-03-31T12:48:42.285Z,27.78
2019-03-31T12:51:12.271Z,26.29
2019-03-31T12:53:41.997Z,24.89
2019-03-31T12:56:11.871Z,23.48
2019-03-31T12:58:41.690Z,23.15
2019-03-31T13:01:11.387Z,23.01
2019-03-31T13:03:40.988Z,23.22
2019-03-31T13:06:10.630Z,23.69
2019-03-31T13:08:40.248Z,24.04
2019-03-31T13:11:09.941Z,23.74
2019-03-31T13:13:39.567Z,23.22
2019-03-31T13:16:09.173Z,22.65
2019-03-31T13:18:38.790Z,22.27
2019-03-31T13:21:08.801Z,21.94
2019-03-31T13:23:38.693Z,21.49
2019-03-31T13:26:08.344Z,20.91
2019-03-31T13:28:37.937Z,20.51
2019-03-31T13:31:07.589Z,20.14
2019-03-31T13:33:37.208Z,19.63
2019-03-31T13:36:06.843Z,19.11
2019-03-31T13:38:36.492Z,18.82
2019-03-31T13:41:06.087Z,18.57
2019-03-31T13:43:35.708Z,18.28
2019-03-31T13:46:05.338Z,18.02
2019-03-31T13:48:34.954Z,18.04
2019-03-31T13:51:04.567Z,18.05
2019-03-31T13:53:34.180Z,18.13
2019-03-31T13:56:03.810Z,18.22
2019-03-31T13:58:34.082Z,18.29
2019-03-31T14:01:03.818Z,18.50
2019-03-31T14:03:33.415Z,18.54
2019-03-31T14:06:03.067Z,18.68
2019-03-31T14:08:32.713Z,18.68
2019-03-31T14:11:02.379Z,18.65
2019-03-31T14:13:31.989Z,18.67
2019-03-31T14:16:01.611Z,18.72
2019-03-31T14:18:31.209Z,18.86
2019-03-31T14:21:00.845Z,18.84
2019-03-31T14:23:33.310Z,18.78
2019-03-31T14:26:02.904Z,18.82
2019-03-31T14:28:32.552Z,18.85
2019-03-31T14:31:02.145Z,18.98
2019-03-31T14:33:31.762Z,18.95
2019-03-31T14:36:01.380Z,18.90
2019-03-31T14:38:40.172Z,19.12
2019-03-31T14:41:02.510Z,18.99
2019-03-31T14:43:32.126Z,18.86
2019-03-31T14:46:01.822Z,18.85
2019-03-31T14:48:31.436Z,18.70
2019-03-31T14:51:01.051Z,18.67
2019-03-31T14:53:30.663Z,18.47
2019-03-31T14:56:00.277Z,18.34
2019-03-31T14:58:29.929Z,18.38
2019-03-31T15:00:59.568Z,18.44
2019-03-31T15:03:29.186Z,18.40
2019-03-31T15:05:58.827Z,18.32
2019-03-31T15:08:28.438Z,18.25
2019-03-31T15:10:58.060Z,18.23
2019-03-31T15:13:27.654Z,18.21
2019-03-31T15:15:57.277Z,18.19
2019-03-31T15:18:26.899Z,18.11
2019-03-31T15:20:56.509Z,17.95
2019-03-31T15:23:29.182Z,17.92
2019-03-31T15:25:57.460Z,17.87
2019-03-31T15:28:27.063Z,17.89
2019-03-31T15:30:56.708Z,18.02
2019-03-31T15:33:26.322Z,18.15
2019-03-31T15:35:55.947Z,18.29
2019-03-31T15:38:25.566Z,18.46
2019-03-31T15:40:55.181Z,18.47
2019-03-31T15:43:24.777Z,18.41
2019-03-31T15:45:55.306Z,18.35
2019-03-31T15:48:24.993Z,18.25
2019-03-31T15:50:54.602Z,18.26
2019-03-31T15:53:24.200Z,18.22
2019-03-31T15:55:53.815Z,18.04
2019-03-31T15:58:23.424Z,17.58
2019-03-31T16:00:53.037Z,17.29
2019-03-31T16:03:22.671Z,16.98
2019-03-31T16:05:52.279Z,16.69
2019-03-31T16:08:21.909Z,16.45
2019-03-31T16:10:51.525Z,16.25
2019-03-31T16:13:21.162Z,16.14
2019-03-31T16:15:50.780Z,16.06
2019-03-31T16:18:20.394Z,15.93
2019-03-31T16:20:49.998Z,15.85
2019-03-31T16:23:19.605Z,15.77
2019-03-31T16:25:50.851Z,15.73
2019-03-31T16:28:20.469Z,15.66
2019-03-31T16:30:50.080Z,15.73
2019-03-31T16:33:19.747Z,15.90
2019-03-31T16:35:49.295Z,16.06
2019-03-31T16:38:18.916Z,16.19
2019-03-31T16:40:48.897Z,16.32
2019-03-31T16:43:18.536Z,16.50
2019-03-31T16:45:48.136Z,16.51
2019-03-31T16:48:17.749Z,16.40
2019-03-31T16:50:47.355Z,16.35
2019-03-31T16:53:18.263Z,16.32
2019-03-31T16:55:47.876Z,16.17
2019-03-31T16:58:19.707Z,16.07
2019-03-31T17:00:50.104Z,15.92
2019-03-31T17:03:19.715Z,15.77
2019-03-31T17:05:49.308Z,15.73
2019-03-31T17:08:18.923Z,15.60
2019-03-31T17:10:48.520Z,15.52
2019-03-31T17:13:18.120Z,15.46
2019-03-31T17:15:47.710Z,15.33
2019-03-31T17:18:17.331Z,15.27
2019-03-31T17:20:46.936Z,15.15
2019-03-31T17:23:16.543Z,15.04
2019-03-31T17:25:46.257Z,14.97
2019-03-31T17:28:15.868Z,14.91
2019-03-31T17:30:45.460Z,14.89
2019-03-31T17:33:15.076Z,14.83
2019-03-31T17:35:44.689Z,14.75
2019-03-31T17:38:15.843Z,14.61
2019-03-31T17:40:45.437Z,14.39
2019-03-31T17:43:15.046Z,14.15
2019-03-31T17:45:45.469Z,13.96
2019-03-31T17:48:15.096Z,13.74
2019-03-31T17:50:44.681Z,13.50
2019-03-31T17:53:14.295Z,13.31
2019-03-31T17:55:45.229Z,13.13
2019-03-31T17:58:14.837Z,13.00
2019-03-31T18:00:44.452Z,12.92
2019-03-31T18:03:15.593Z,12.77
2019-03-31T18:05:45.407Z,12.67
2019-03-31T18:08:15.013Z,12.58
2019-03-31T18:10:44.610Z,12.49
2019-03-31T18:13:14.230Z,12.37
2019-03-31T18:15:43.840Z,12.26
2019-03-31T18:18:15.526Z,12.23
2019-03-31T18:20:45.131Z,12.15
2019-03-31T18:23:14.739Z,12.12
2019-03-31T18:25:44.356Z,12.09
2019-03-31T18:28:13.972Z,12.05
2019-03-31T18:30:43.572Z,11.97
2019-03-31T18:33:13.186Z,11.92
2019-03-31T18:35:42.872Z,11.86
2019-03-31T18:38:12.500Z,11.84
2019-03-31T18:40:42.089Z,11.79
2019-03-31T18:43:11.773Z,11.74
2019-03-31T18:45:41.381Z,11.70
2019-03-31T18:48:11.003Z,11.68
2019-03-31T18:50:40.580Z,11.68
2019-03-31T18:53:11.845Z,11.64
2019-03-31T18:55:58.302Z,11.62
2019-03-31T18:58:38.484Z,11.54
2019-03-31T19:01:24.616Z,11.51
2019-03-31T19:04:14.419Z,11.52
2019-03-31T19:06:45.661Z,11.53
2019-03-31T19:09:27.055Z,11.58
2019-03-31T19:12:05.024Z,11.57
2019-03-31T19:14:36.272Z,11.67
2019-03-31T19:17:13.162Z,11.81
2019-03-31T19:19:50.709Z,11.85
2019-03-31T19:22:37.056Z,11.82
2019-03-31T19:25:25.825Z,11.76
2019-03-31T19:28:05.942Z,11.71
2019-03-31T19:30:44.130Z,11.69
2019-03-31T19:33:13.541Z,11.61
2019-03-31T19:35:49.558Z,11.53
2019-03-31T19:38:20.818Z,11.51
2019-03-31T19:41:08.213Z,11.46
2019-03-31T19:43:48.194Z,11.48
2019-03-31T19:46:31.065Z,11.43
2019-03-31T19:49:05.199Z,11.42
2019-03-31T19:51:36.451Z,11.35
2019-03-31T19:54:13.596Z,11.32
2019-03-31T19:56:48.890Z,11.28
2019-03-31T19:59:38.096Z,11.27
2019-03-31T20:02:25.080Z,11.14
2019-03-31T20:05:00.509Z,11.03
2019-03-31T20:07:43.727Z,10.98
2019-03-31T20:10:14.477Z,10.98
2019-03-31T20:13:01.606Z,10.95
2019-03-31T20:15:49.104Z,10.90
2019-03-31T20:18:29.276Z,10.85
2019-03-31T20:21:09.154Z,10.78
2019-03-31T20:23:49.255Z,10.74
2019-03-31T20:26:29.233Z,10.65
2019-03-31T20:29:06.096Z,10.55
2019-03-31T20:31:42.890Z,10.44
2019-03-31T20:34:20.363Z,10.41
2019-03-31T20:36:51.602Z,10.36
2019-03-31T20:39:22.838Z,10.33
2019-03-31T20:41:56.832Z,10.38
2019-03-31T20:44:27.981Z,10.41
2019-03-31T20:46:57.604Z,10.46
2019-03-31T20:49:27.216Z,10.41
2019-03-31T20:51:56.826Z,10.35
2019-03-31T20:54:26.439Z,10.28
2019-03-31T20:56:56.062Z,10.26
2019-03-31T20:59:25.705Z,10.24
2019-03-31T21:01:55.337Z,10.22
2019-03-31T21:04:24.962Z,10.21
2019-03-31T21:06:54.574Z,10.23
2019-03-31T21:09:24.187Z,10.20
2019-03-31T21:11:53.804Z,10.16
2019-03-31T21:14:23.401Z,10.15
2019-03-31T21:16:53.463Z,10.11
2019-03-31T21:19:23.091Z,10.08
2019-03-31T21:21:52.687Z,10.07
2019-03-31T21:24:22.309Z,10.04
2019-03-31T21:26:51.901Z,9.98
2019-03-31T21:29:22.198Z,9.90
2019-03-31T21:31:51.809Z,9.85
2019-03-31T21:34:21.414Z,9.81
2019-03-31T21:36:51.002Z,9.78
2019-03-31T21:39:20.628Z,9.69
2019-03-31T21:41:50.234Z,9.65
2019-03-31T21:44:19.848Z,9.63
2019-03-31T21:46:49.451Z,9.60
2019-03-31T21:49:19.049Z,9.56
2019-03-31T21:51:48.649Z,9.53
2019-03-31T21:54:18.265Z,9.47
2019-03-31T21:56:47.872Z,9.46
2019-03-31T21:59:17.484Z,9.39
2019-03-31T22:01:47.083Z,9.37
2019-03-31T22:04:16.692Z,9.40
2019-03-31T22:06:46.305Z,9.38
2019-03-31T22:09:15.898Z,9.33
2019-03-31T22:11:45.494Z,9.31
2019-03-31T22:14:15.105Z,9.34
2019-03-31T22:16:44.709Z,9.28
2019-03-31T22:19:14.313Z,9.26
2019-03-31T22:21:43.894Z,9.23
2019-03-31T22:24:13.519Z,9.15
2019-03-31T22:26:43.111Z,9.15
2019-03-31T22:29:12.724Z,9.09
2019-03-31T22:31:42.302Z,9.07
2019-03-31T22:34:11.920Z,9.03
2019-03-31T22:36:41.523Z,9.02
2019-03-31T22:39:11.393Z,8.94
2019-03-31T22:41:40.983Z,8.94
2019-03-31T22:44:10.592Z,8.90
2019-03-31T22:46:53.417Z,8.88
2019-03-31T22:49:11.529Z,8.87
2019-03-31T22:51:41.122Z,8.86
2019-03-31T22:54:10.732Z,8.83
2019-03-31T22:56:40.331Z,8.80
2019-03-31T22:59:10.008Z,8.75
2019-03-31T23:01:39.638Z,8.73
2019-03-31T23:04:09.220Z,8.74
2019-03-31T23:06:38.814Z,8.66
2019-03-31T23:09:08.426Z,8.69
2019-03-31T23:11:38.023Z,8.70
2019-03-31T23:14:07.609Z,8.74
2019-03-31T23:16:37.222Z,8.71
2019-03-31T23:19:06.806Z,8.68
2019-03-31T23:21:36.499Z,8.68
2019-03-31T23:24:06.108Z,8.62
2019-03-31T23:26:35.786Z,8.58
2019-03-31T23:29:05.378Z,8.51
2019-03-31T23:31:34.973Z,8.45
2019-03-31T23:34:04.566Z,8.39
2019-03-31T23:36:34.239Z,8.28
2019-03-31T23:39:05.584Z,8.24
2019-03-31T23:41:35.262Z,8.21
2019-03-31T23:44:04.846Z,8.18
2019-03-31T23:46:34.452Z,8.12
2019-03-31T23:49:04.051Z,8.14
2019-03-31T23:51:33.654Z,8.10
2019-03-31T23:54:03.247Z,8.08
2019-03-31T23:56:33.583Z,8.08
2019-03-31T23:59:03.195Z,8.06
